createdAt,value
2022-08-05T00:00:02.773Z,28.97
2022-08-05T00:00:12.794Z,28.98
2022-08-05T00:00:22.768Z,29.00
2022-08-05T00:00:32.827Z,28.98
2022-08-05T00:00:46.383Z,28.97
2022-08-05T00:00:53.036Z,29.00
2022-08-05T00:01:20.513Z,28.98
2022-08-05T00:01:35.614Z,29.00
2022-08-05T00:01:48.835Z,28.98
2022-08-05T00:01:53.779Z,29.02
2022-08-05T00:02:07.593Z,28.98
2022-08-05T00:02:15.771Z,28.98
2022-08-05T00:02:21.329Z,28.97
2022-08-05T00:02:31.279Z,28.97
2022-08-05T00:02:41.246Z,28.98
2022-08-05T00:02:52.287Z,28.97
2022-08-05T00:03:01.222Z,28.98
2022-08-05T00:03:15.473Z,28.97
2022-08-05T00:03:21.222Z,28.98
2022-08-05T00:03:31.698Z,28.95
2022-08-05T00:03:41.221Z,28.94
2022-08-05T00:03:51.220Z,28.95
2022-08-05T00:04:01.225Z,28.95
2022-08-05T00:04:11.219Z,28.95
2022-08-05T00:04:21.214Z,28.97
2022-08-05T00:04:31.218Z,28.95
2022-08-05T00:04:41.213Z,28.94
2022-08-05T00:04:55.579Z,28.95
2022-08-05T00:05:01.212Z,28.92
2022-08-05T00:05:15.093Z,28.94
2022-08-05T00:06:28.920Z,28.94
2022-08-05T00:06:35.897Z,28.91
2022-08-05T00:06:40.848Z,28.92
2022-08-05T00:06:51.817Z,28.91
2022-08-05T00:07:00.831Z,28.92
2022-08-05T00:08:00.352Z,28.91
2022-08-05T00:08:06.004Z,28.88
2022-08-05T00:08:37.318Z,28.88
2022-08-05T00:08:41.991Z,28.87
2022-08-05T00:08:51.993Z,28.89
2022-08-05T00:09:01.988Z,28.89
2022-08-05T00:09:12.887Z,28.91
2022-08-05T00:09:21.987Z,28.89
2022-08-05T00:09:31.985Z,28.88
2022-08-05T00:09:41.980Z,28.85
2022-08-05T00:09:51.983Z,28.92
2022-08-05T00:10:01.987Z,28.88
2022-08-05T00:10:11.988Z,28.92
2022-08-05T00:10:21.977Z,28.94
2022-08-05T00:10:31.983Z,28.89
2022-08-05T00:10:41.974Z,28.88
2022-08-05T00:10:51.977Z,28.89
2022-08-05T00:11:01.977Z,28.91
2022-08-05T00:11:23.959Z,28.91
2022-08-05T00:11:49.043Z,28.88
2022-08-05T00:11:55.739Z,28.89
2022-08-05T00:12:04.205Z,28.89
2022-08-05T00:12:13.762Z,28.88
2022-08-05T00:12:23.758Z,28.88
2022-08-05T00:12:33.782Z,28.89
2022-08-05T00:13:00.737Z,28.91
2022-08-05T00:13:07.605Z,28.92
2022-08-05T00:13:38.260Z,28.89
2022-08-05T00:13:44.394Z,28.91
2022-08-05T00:13:57.565Z,28.91
2022-08-05T00:14:13.030Z,28.91
2022-08-05T00:14:21.418Z,28.91
2022-08-05T00:14:32.355Z,28.89
2022-08-05T00:14:41.018Z,28.92
2022-08-05T00:14:51.865Z,28.91
2022-08-05T00:15:54.155Z,28.91
2022-08-05T00:16:02.019Z,28.89
2022-08-05T00:16:06.683Z,28.89
2022-08-05T00:16:16.684Z,28.88
2022-08-05T00:16:35.626Z,28.88
2022-08-05T00:16:53.660Z,28.91
2022-08-05T00:16:58.458Z,28.89
2022-08-05T00:17:03.164Z,28.89
2022-08-05T00:17:19.359Z,28.89
2022-08-05T00:17:24.196Z,28.88
2022-08-05T00:17:33.433Z,28.89
2022-08-05T00:17:43.133Z,28.89
2022-08-05T00:17:53.109Z,28.88
2022-08-05T00:18:03.112Z,28.89
2022-08-05T00:18:21.667Z,28.89
2022-08-05T00:18:27.214Z,28.91
2022-08-05T00:18:33.422Z,28.89
2022-08-05T00:18:44.242Z,28.89
2022-08-05T00:18:53.417Z,28.89
2022-08-05T00:19:03.417Z,28.92
2022-08-05T00:19:13.415Z,28.88
2022-08-05T00:19:25.003Z,28.89
2022-08-05T00:19:45.570Z,28.88
2022-08-05T00:20:02.418Z,28.88
2022-08-05T00:20:07.720Z,28.88
2022-08-05T00:20:20.258Z,28.89
2022-08-05T00:20:28.970Z,28.87
2022-08-05T00:20:37.720Z,28.87
2022-08-05T00:20:47.715Z,28.88
2022-08-05T00:20:57.720Z,28.87
2022-08-05T00:21:08.574Z,28.87
2022-08-05T00:21:17.715Z,28.85
2022-08-05T00:21:27.712Z,28.85
2022-08-05T00:21:37.714Z,28.87
2022-08-05T00:21:47.708Z,28.83
2022-08-05T00:21:57.716Z,28.85
2022-08-05T00:22:07.707Z,28.82
2022-08-05T00:22:17.915Z,28.83
2022-08-05T00:22:27.704Z,28.85
2022-08-05T00:22:37.709Z,28.85
2022-08-05T00:22:59.590Z,28.83
2022-08-05T00:23:12.839Z,28.82
2022-08-05T00:23:17.666Z,28.83
2022-08-05T00:23:53.696Z,28.82
2022-08-05T00:24:18.991Z,28.82
2022-08-05T00:24:30.690Z,28.79
2022-08-05T00:24:36.072Z,28.79
2022-08-05T00:24:46.749Z,28.79
2022-08-05T00:24:59.691Z,28.82
2022-08-05T00:25:08.273Z,28.82
2022-08-05T00:25:16.417Z,28.80
2022-08-05T00:25:26.351Z,28.77
2022-08-05T00:25:49.894Z,28.83
2022-08-05T00:25:58.626Z,28.77
2022-08-05T00:26:08.624Z,28.82
2022-08-05T00:26:18.644Z,28.80
2022-08-05T00:26:28.621Z,28.80
2022-08-05T00:26:38.624Z,28.80
2022-08-05T00:26:51.905Z,28.79
2022-08-05T00:26:58.781Z,28.82
2022-08-05T00:27:28.337Z,28.80
2022-08-05T00:27:42.802Z,28.80
2022-08-05T00:27:47.582Z,28.77
2022-08-05T00:27:57.587Z,28.79
2022-08-05T00:28:07.580Z,28.80
2022-08-05T00:28:21.169Z,28.79
2022-08-05T00:28:34.301Z,28.74
2022-08-05T00:28:40.147Z,28.80
2022-08-05T00:28:50.144Z,28.77
2022-08-05T00:29:00.149Z,28.77
2022-08-05T00:29:10.143Z,28.79
2022-08-05T00:29:22.598Z,28.77
2022-08-05T00:29:37.827Z,28.76
2022-08-05T00:29:42.723Z,28.76
2022-08-05T00:29:50.136Z,28.79
2022-08-05T00:30:00.420Z,28.76
2022-08-05T00:30:11.379Z,28.76
2022-08-05T00:30:20.143Z,28.76
2022-08-05T00:30:33.791Z,28.76
2022-08-05T00:30:41.086Z,28.77
2022-08-05T00:30:52.000Z,28.77
2022-08-05T00:31:02.863Z,28.77
2022-08-05T00:31:10.136Z,28.77
2022-08-05T00:31:54.009Z,28.77
2022-08-05T00:32:15.906Z,28.76
2022-08-05T00:32:20.574Z,28.74
2022-08-05T00:32:30.581Z,28.76
2022-08-05T00:32:40.660Z,28.72
2022-08-05T00:32:50.572Z,28.72
2022-08-05T00:33:00.592Z,28.73
2022-08-05T00:33:15.434Z,28.74
2022-08-05T00:35:05.525Z,28.72
2022-08-05T00:35:11.601Z,28.70
2022-08-05T00:35:16.268Z,28.73
2022-08-05T00:35:33.382Z,28.70
2022-08-05T00:35:38.021Z,28.72
2022-08-05T00:37:12.927Z,28.72
2022-08-05T00:37:18.472Z,28.72
2022-08-05T00:37:25.111Z,28.69
2022-08-05T00:37:50.482Z,28.67
2022-08-05T00:37:58.088Z,28.69
2022-08-05T00:38:02.754Z,28.69
2022-08-05T00:38:12.753Z,28.72
2022-08-05T00:38:33.727Z,28.70
2022-08-05T00:38:38.475Z,28.72
2022-08-05T00:38:43.212Z,28.72
2022-08-05T00:38:53.243Z,28.72
2022-08-05T00:39:03.233Z,28.69
2022-08-05T00:39:13.776Z,28.72
2022-08-05T00:39:24.434Z,28.67
2022-08-05T00:39:37.085Z,28.74
2022-08-05T00:39:58.454Z,28.72
2022-08-05T00:40:03.639Z,28.70
2022-08-05T00:40:13.998Z,28.72
2022-08-05T00:40:27.252Z,28.74
2022-08-05T00:40:33.172Z,28.73
2022-08-05T00:40:46.587Z,28.73
2022-08-05T00:40:57.681Z,28.70
2022-08-05T00:41:03.158Z,28.73
2022-08-05T00:41:13.162Z,28.73
2022-08-05T00:41:23.156Z,28.72
2022-08-05T00:41:51.449Z,28.72
2022-08-05T00:41:59.401Z,28.72
2022-08-05T00:42:04.064Z,28.73
2022-08-05T00:42:32.207Z,28.73
2022-08-05T00:42:37.130Z,28.73
2022-08-05T00:42:41.765Z,28.72
2022-08-05T00:42:51.772Z,28.76
2022-08-05T00:43:02.038Z,28.72
2022-08-05T00:43:11.767Z,28.73
2022-08-05T00:43:21.765Z,28.70
2022-08-05T00:43:47.157Z,28.73
2022-08-05T00:43:54.436Z,28.70
2022-08-05T00:43:59.101Z,28.72
2022-08-05T00:44:09.098Z,28.70
2022-08-05T00:44:19.097Z,28.69
2022-08-05T00:44:30.687Z,28.72
2022-08-05T00:44:39.107Z,28.70
2022-08-05T00:44:49.100Z,28.72
2022-08-05T00:44:59.380Z,28.69
2022-08-05T00:45:11.754Z,28.70
2022-08-05T00:45:28.255Z,28.67
2022-08-05T00:45:44.071Z,28.69
2022-08-05T00:45:48.724Z,28.69
2022-08-05T00:45:58.728Z,28.72
2022-08-05T00:46:08.722Z,28.69
2022-08-05T00:46:18.726Z,28.69
2022-08-05T00:46:47.297Z,28.70
2022-08-05T00:47:01.852Z,28.69
2022-08-05T00:47:08.763Z,28.69
2022-08-05T00:47:18.112Z,28.70
2022-08-05T00:47:53.350Z,28.67
2022-08-05T00:48:05.343Z,28.67
2022-08-05T00:48:10.479Z,28.67
2022-08-05T00:48:31.485Z,28.70
2022-08-05T00:48:36.176Z,28.67
2022-08-05T00:48:55.899Z,28.70
2022-08-05T00:49:02.194Z,28.70
2022-08-05T00:49:14.087Z,28.67
2022-08-05T00:49:22.191Z,28.69
2022-08-05T00:49:32.820Z,28.67
2022-08-05T00:49:51.771Z,28.69
2022-08-05T00:49:56.555Z,28.69
2022-08-05T00:50:06.567Z,28.65
2022-08-05T00:50:16.569Z,28.69
2022-08-05T00:50:26.551Z,28.69
2022-08-05T00:50:36.557Z,28.70
2022-08-05T00:50:46.739Z,28.67
2022-08-05T00:50:56.552Z,28.67
2022-08-05T00:51:49.939Z,28.69
2022-08-05T00:52:00.263Z,28.67
2022-08-05T00:53:09.783Z,28.67
2022-08-05T00:54:30.158Z,28.65
2022-08-05T00:54:40.271Z,28.67
2022-08-05T00:54:52.837Z,28.64
2022-08-05T00:55:00.725Z,28.67
2022-08-05T00:55:10.703Z,28.64
2022-08-05T00:55:20.698Z,28.67
2022-08-05T00:55:42.544Z,28.64
2022-08-05T00:55:48.196Z,28.65
2022-08-05T00:55:52.872Z,28.65
2022-08-05T00:56:02.868Z,28.67
2022-08-05T00:56:12.868Z,28.67
2022-08-05T00:56:23.111Z,28.64
2022-08-05T00:56:32.863Z,28.67
2022-08-05T00:56:51.627Z,28.65
2022-08-05T00:56:56.392Z,28.67
2022-08-05T00:57:02.863Z,28.65
2022-08-05T00:57:12.863Z,28.65
2022-08-05T00:57:25.265Z,28.64
2022-08-05T00:57:55.649Z,28.62
2022-08-05T00:58:04.724Z,28.64
2022-08-05T00:58:11.395Z,28.62
2022-08-05T00:58:19.433Z,28.65
2022-08-05T00:58:29.426Z,28.64
2022-08-05T00:58:39.430Z,28.65
2022-08-05T00:58:49.427Z,28.64
2022-08-05T00:59:00.357Z,28.62
2022-08-05T00:59:09.425Z,28.65
2022-08-05T00:59:19.426Z,28.67
2022-08-05T00:59:34.642Z,28.64
2022-08-05T00:59:48.968Z,28.62
2022-08-05T00:59:53.643Z,28.65
2022-08-05T01:00:03.645Z,28.65
2022-08-05T01:00:13.639Z,28.64
2022-08-05T01:00:25.963Z,28.64
2022-08-05T01:00:33.754Z,28.67
2022-08-05T01:00:43.695Z,28.67
2022-08-05T01:00:53.701Z,28.65
2022-08-05T01:01:03.688Z,28.67
2022-08-05T01:01:13.725Z,28.62
2022-08-05T01:01:41.959Z,28.64
2022-08-05T01:01:52.663Z,28.64
2022-08-05T01:01:57.421Z,28.64
2022-08-05T01:02:07.361Z,28.67
2022-08-05T01:02:17.360Z,28.65
2022-08-05T01:02:27.360Z,28.64
2022-08-05T01:02:37.358Z,28.64
2022-08-05T01:02:47.357Z,28.64
2022-08-05T01:02:57.355Z,28.65
2022-08-05T01:03:07.967Z,28.62
2022-08-05T01:03:22.762Z,28.65
2022-08-05T01:03:30.940Z,28.62
2022-08-05T01:03:38.623Z,28.62
2022-08-05T01:03:50.020Z,28.64
2022-08-05T01:03:57.365Z,28.60
2022-08-05T01:04:13.573Z,28.64
2022-08-05T01:04:20.415Z,28.62
2022-08-05T01:04:31.368Z,28.60
2022-08-05T01:04:38.065Z,28.61
2022-08-05T01:04:50.472Z,28.62
2022-08-05T01:04:58.060Z,28.61
2022-08-05T01:05:10.046Z,28.60
2022-08-05T01:05:18.059Z,28.61
2022-08-05T01:05:28.063Z,28.61
2022-08-05T01:05:38.061Z,28.61
2022-08-05T01:05:48.058Z,28.60
2022-08-05T01:05:58.067Z,28.60
2022-08-05T01:06:14.046Z,28.60
2022-08-05T01:06:19.963Z,28.61
2022-08-05T01:06:32.788Z,28.62
2022-08-05T01:06:38.054Z,28.62
2022-08-05T01:06:48.996Z,28.61
2022-08-05T01:06:58.048Z,28.61
2022-08-05T01:07:08.053Z,28.61
2022-08-05T01:07:18.328Z,28.62
2022-08-05T01:07:31.652Z,28.61
2022-08-05T01:07:38.043Z,28.60
2022-08-05T01:08:43.148Z,28.58
2022-08-05T01:08:48.338Z,28.60
2022-08-05T01:08:54.952Z,28.60
2022-08-05T01:09:04.950Z,28.57
2022-08-05T01:09:14.954Z,28.58
2022-08-05T01:09:24.953Z,28.57
2022-08-05T01:09:34.953Z,28.57
2022-08-05T01:09:44.981Z,28.58
2022-08-05T01:09:55.791Z,28.60
2022-08-05T01:10:04.947Z,28.58
2022-08-05T01:10:14.944Z,28.58
2022-08-05T01:10:25.758Z,28.60
2022-08-05T01:10:34.941Z,28.58
2022-08-05T01:10:51.422Z,28.57
2022-08-05T01:10:56.379Z,28.60
2022-08-05T01:11:04.935Z,28.58
2022-08-05T01:11:14.938Z,28.58
2022-08-05T01:11:36.844Z,28.60
2022-08-05T01:11:42.102Z,28.60
2022-08-05T01:11:46.823Z,28.57
2022-08-05T01:11:56.827Z,28.60
2022-08-05T01:12:09.459Z,28.61
2022-08-05T01:12:23.441Z,28.60
2022-08-05T01:12:29.738Z,28.58
2022-08-05T01:12:38.097Z,28.60
2022-08-05T01:13:05.018Z,28.60
2022-08-05T01:13:22.179Z,28.60
2022-08-05T01:13:27.516Z,28.58
2022-08-05T01:14:02.526Z,28.57
2022-08-05T01:14:08.618Z,28.55
2022-08-05T01:14:17.191Z,28.57
2022-08-05T01:14:32.646Z,28.58
2022-08-05T01:14:37.857Z,28.57
2022-08-05T01:14:47.846Z,28.58
2022-08-05T01:14:57.850Z,28.57
2022-08-05T01:15:35.050Z,28.58
2022-08-05T01:15:41.061Z,28.60
2022-08-05T01:15:52.509Z,28.57
2022-08-05T01:16:00.657Z,28.58
2022-08-05T01:16:10.659Z,28.58
2022-08-05T01:16:21.080Z,28.58
2022-08-05T01:16:30.826Z,28.60
2022-08-05T01:16:40.652Z,28.58
2022-08-05T01:16:50.650Z,28.61
2022-08-05T01:17:00.654Z,28.58
2022-08-05T01:17:10.650Z,28.58
2022-08-05T01:17:20.774Z,28.60
2022-08-05T01:17:30.646Z,28.58
2022-08-05T01:17:44.464Z,28.60
2022-08-05T01:17:53.827Z,28.60
2022-08-05T01:18:00.650Z,28.60
2022-08-05T01:18:10.638Z,28.58
2022-08-05T01:18:20.657Z,28.57
2022-08-05T01:18:30.638Z,28.61
2022-08-05T01:18:40.641Z,28.58
2022-08-05T01:18:53.712Z,28.60
2022-08-05T01:19:01.134Z,28.58
2022-08-05T01:19:10.654Z,28.57
2022-08-05T01:19:20.635Z,28.58
2022-08-05T01:20:01.915Z,28.57
2022-08-05T01:20:07.600Z,28.57
2022-08-05T01:20:12.264Z,28.55
2022-08-05T01:20:22.481Z,28.60
2022-08-05T01:20:32.260Z,28.57
2022-08-05T01:20:42.263Z,28.55
2022-08-05T01:20:52.260Z,28.55
2022-08-05T01:21:02.264Z,28.57
2022-08-05T01:21:12.261Z,28.57
2022-08-05T01:21:38.139Z,28.57
2022-08-05T01:21:42.967Z,28.60
2022-08-05T01:21:55.174Z,28.54
2022-08-05T01:22:02.568Z,28.58
2022-08-05T01:22:15.427Z,28.58
2022-08-05T01:22:24.424Z,28.55
2022-08-05T01:22:34.159Z,28.57
2022-08-05T01:22:42.564Z,28.57
2022-08-05T01:22:52.565Z,28.55
2022-08-05T01:23:14.226Z,28.57
2022-08-05T01:23:23.346Z,28.57
2022-08-05T01:23:34.715Z,28.55
2022-08-05T01:23:39.574Z,28.57
2022-08-05T01:23:53.158Z,28.57
2022-08-05T01:23:58.285Z,28.57
2022-08-05T01:24:13.260Z,28.58
2022-08-05T01:24:18.852Z,28.57
2022-08-05T01:24:30.218Z,28.55
2022-08-05T01:24:38.276Z,28.58
2022-08-05T01:24:48.276Z,28.58
2022-08-05T01:24:58.277Z,28.57
2022-08-05T01:25:08.273Z,28.57
2022-08-05T01:25:18.281Z,28.58
2022-08-05T01:25:39.460Z,28.58
2022-08-05T01:25:53.153Z,28.55
2022-08-05T01:25:58.052Z,28.55
2022-08-05T01:26:03.620Z,28.55
2022-08-05T01:26:13.615Z,28.54
2022-08-05T01:26:26.232Z,28.58
2022-08-05T01:26:33.613Z,28.55
2022-08-05T01:26:43.615Z,28.57
2022-08-05T01:26:53.610Z,28.58
2022-08-05T01:27:19.099Z,28.57
2022-08-05T01:27:24.011Z,28.57
2022-08-05T01:27:28.724Z,28.57
2022-08-05T01:27:50.666Z,28.58
2022-08-05T01:27:59.844Z,28.60
2022-08-05T01:28:05.158Z,28.60
2022-08-05T01:28:15.159Z,28.60
2022-08-05T01:28:25.156Z,28.57
2022-08-05T01:28:35.158Z,28.60
2022-08-05T01:28:45.155Z,28.58
2022-08-05T01:28:55.165Z,28.60
2022-08-05T01:29:05.562Z,28.57
2022-08-05T01:29:15.168Z,28.58
2022-08-05T01:29:25.145Z,28.60
2022-08-05T01:29:35.151Z,28.60
2022-08-05T01:29:45.156Z,28.57
2022-08-05T01:29:55.158Z,28.58
2022-08-05T01:30:05.144Z,28.58
2022-08-05T01:30:34.692Z,28.58
2022-08-05T01:30:39.645Z,28.57
2022-08-05T01:30:53.716Z,28.57
2022-08-05T01:31:00.049Z,28.57
2022-08-05T01:31:10.048Z,28.57
2022-08-05T01:31:20.045Z,28.58
2022-08-05T01:31:30.049Z,28.55
2022-08-05T01:31:42.558Z,28.57
2022-08-05T01:31:50.057Z,28.55
2022-08-05T01:32:00.041Z,28.54
2022-08-05T01:32:12.573Z,28.57
2022-08-05T01:32:22.963Z,28.55
2022-08-05T01:32:30.043Z,28.54
2022-08-05T01:32:40.041Z,28.52
2022-08-05T01:32:50.051Z,28.54
2022-08-05T01:33:00.035Z,28.55
2022-08-05T01:33:10.039Z,28.54
2022-08-05T01:33:20.032Z,28.54
2022-08-05T01:33:35.446Z,28.55
2022-08-05T01:33:40.311Z,28.54
2022-08-05T01:33:53.451Z,28.52
2022-08-05T01:34:00.026Z,28.54
2022-08-05T01:34:10.033Z,28.52
2022-08-05T01:34:20.027Z,28.51
2022-08-05T01:34:30.030Z,28.54
2022-08-05T01:34:40.063Z,28.54
2022-08-05T01:34:50.044Z,28.51
2022-08-05T01:35:00.024Z,28.51
2022-08-05T01:35:10.635Z,28.52
2022-08-05T01:35:51.153Z,28.54
2022-08-05T01:35:57.784Z,28.51
2022-08-05T01:36:02.430Z,28.51
2022-08-05T01:36:13.022Z,28.50
2022-08-05T01:36:27.908Z,28.52
2022-08-05T01:36:33.056Z,28.50
2022-08-05T01:36:46.992Z,28.50
2022-08-05T01:36:52.428Z,28.52
2022-08-05T01:37:02.438Z,28.51
2022-08-05T01:37:24.402Z,28.50
2022-08-05T01:37:29.734Z,28.50
2022-08-05T01:37:37.454Z,28.50
2022-08-05T01:37:49.085Z,28.50
2022-08-05T01:37:57.453Z,28.52
2022-08-05T01:38:07.449Z,28.52
2022-08-05T01:38:26.916Z,28.50
2022-08-05T01:38:32.235Z,28.52
2022-08-05T01:38:38.716Z,28.48
2022-08-05T01:38:49.894Z,28.50
2022-08-05T01:39:00.400Z,28.50
2022-08-05T01:39:08.753Z,28.48
2022-08-05T01:39:47.592Z,28.48
2022-08-05T01:39:52.451Z,28.51
2022-08-05T01:39:59.386Z,28.48
2022-08-05T01:40:08.911Z,28.51
2022-08-05T01:40:18.839Z,28.50
2022-08-05T01:40:29.090Z,28.50
2022-08-05T01:40:38.831Z,28.51
2022-08-05T01:40:48.829Z,28.51
2022-08-05T01:40:58.835Z,28.50
2022-08-05T01:41:08.826Z,28.52
2022-08-05T01:41:18.827Z,28.51
2022-08-05T01:41:28.823Z,28.51
2022-08-05T01:41:38.823Z,28.51
2022-08-05T01:41:48.878Z,28.50
2022-08-05T01:41:58.820Z,28.50
2022-08-05T01:42:09.742Z,28.51
2022-08-05T01:42:18.830Z,28.52
2022-08-05T01:42:28.863Z,28.50
2022-08-05T01:42:38.818Z,28.52
2022-08-05T01:42:48.821Z,28.50
2022-08-05T01:42:58.816Z,28.50
2022-08-05T01:43:08.816Z,28.50
2022-08-05T01:43:26.936Z,28.50
2022-08-05T01:43:31.826Z,28.46
2022-08-05T01:43:41.818Z,28.48
2022-08-05T01:43:51.816Z,28.48
2022-08-05T01:44:01.824Z,28.50
2022-08-05T01:44:11.814Z,28.50
2022-08-05T01:44:21.816Z,28.50
2022-08-05T01:44:35.241Z,28.50
2022-08-05T01:44:41.816Z,28.50
2022-08-05T01:44:54.189Z,28.48
2022-08-05T01:45:02.246Z,28.50
2022-08-05T01:45:11.806Z,28.50
2022-08-05T01:45:21.814Z,28.48
2022-08-05T01:45:34.958Z,28.50
2022-08-05T01:45:47.696Z,28.50
2022-08-05T01:46:07.110Z,28.48
2022-08-05T01:46:42.735Z,28.50
2022-08-05T01:46:50.793Z,28.46
2022-08-05T01:46:56.814Z,28.48
2022-08-05T01:47:06.885Z,28.48
2022-08-05T01:47:16.857Z,28.46
2022-08-05T01:47:39.298Z,28.48
2022-08-05T01:47:44.297Z,28.50
2022-08-05T01:47:48.961Z,28.45
2022-08-05T01:47:59.071Z,28.48
2022-08-05T01:48:10.275Z,28.46
2022-08-05T01:48:18.961Z,28.48
2022-08-05T01:48:28.961Z,28.48
2022-08-05T01:48:38.954Z,28.48
2022-08-05T01:48:49.613Z,28.50
2022-08-05T01:48:58.953Z,28.50
2022-08-05T01:49:22.661Z,28.50
2022-08-05T01:50:00.469Z,28.50
2022-08-05T01:50:06.945Z,28.48
2022-08-05T01:50:15.044Z,28.45
2022-08-05T01:50:28.659Z,28.46
2022-08-05T01:50:34.195Z,28.45
2022-08-05T01:50:41.607Z,28.48
2022-08-05T01:50:55.628Z,28.50
2022-08-05T01:51:12.161Z,28.48
2022-08-05T01:51:17.507Z,28.45
2022-08-05T01:51:22.169Z,28.51
2022-08-05T01:51:32.170Z,28.43
2022-08-05T01:51:42.169Z,28.46
2022-08-05T01:51:56.282Z,28.48
2022-08-05T01:52:17.707Z,28.45
2022-08-05T01:52:22.572Z,28.46
2022-08-05T01:52:27.238Z,28.48
2022-08-05T01:52:37.237Z,28.48
2022-08-05T01:52:50.134Z,28.46
2022-08-05T01:52:57.231Z,28.50
2022-08-05T01:53:07.237Z,28.50
2022-08-05T01:53:17.231Z,28.45
2022-08-05T01:53:59.871Z,28.48
2022-08-05T01:54:06.819Z,28.46
2022-08-05T01:54:17.977Z,28.46
2022-08-05T01:54:27.256Z,28.46
2022-08-05T01:54:46.045Z,28.45
2022-08-05T01:54:52.748Z,28.50
2022-08-05T01:54:57.670Z,28.48
2022-08-05T01:55:07.607Z,28.46
2022-08-05T01:55:17.608Z,28.46
2022-08-05T01:55:27.610Z,28.46
2022-08-05T01:55:37.606Z,28.43
2022-08-05T01:55:47.604Z,28.45
2022-08-05T01:55:57.634Z,28.45
2022-08-05T01:56:08.918Z,28.46
2022-08-05T01:58:11.870Z,28.48
2022-08-05T01:58:40.832Z,28.46
2022-08-05T01:58:50.388Z,28.42
2022-08-05T01:58:55.308Z,28.43
2022-08-05T01:59:05.301Z,28.46
2022-08-05T01:59:15.299Z,28.45
2022-08-05T01:59:25.302Z,28.43
2022-08-05T01:59:35.299Z,28.42
2022-08-05T01:59:47.233Z,28.42
2022-08-05T01:59:55.298Z,28.46
2022-08-05T02:00:05.297Z,28.45
2022-08-05T02:00:16.616Z,28.42
2022-08-05T02:00:30.407Z,28.45
2022-08-05T02:00:35.499Z,28.45
2022-08-05T02:00:45.296Z,28.43
2022-08-05T02:00:55.289Z,28.46
2022-08-05T02:01:05.362Z,28.42
2022-08-05T02:01:15.294Z,28.45
2022-08-05T02:01:27.807Z,28.45
2022-08-05T02:01:39.793Z,28.45
2022-08-05T02:01:46.322Z,28.45
2022-08-05T02:01:56.371Z,28.48
2022-08-05T02:02:06.407Z,28.42
2022-08-05T02:02:16.549Z,28.43
2022-08-05T02:02:28.664Z,28.45
2022-08-05T02:02:36.379Z,28.45
2022-08-05T02:02:54.378Z,28.43
2022-08-05T02:02:59.504Z,28.42
2022-08-05T02:03:24.263Z,28.45
2022-08-05T02:03:31.764Z,28.43
2022-08-05T02:03:36.827Z,28.45
2022-08-05T02:03:46.819Z,28.45
2022-08-05T02:03:56.822Z,28.42
2022-08-05T02:04:06.818Z,28.45
2022-08-05T02:04:16.819Z,28.45
2022-08-05T02:04:26.829Z,28.42
2022-08-05T02:04:36.818Z,28.43
2022-08-05T02:04:49.531Z,28.45
2022-08-05T02:04:56.816Z,28.45
2022-08-05T02:05:06.811Z,28.45
2022-08-05T02:05:16.820Z,28.45
2022-08-05T02:05:28.698Z,28.45
2022-08-05T02:05:36.814Z,28.43
2022-08-05T02:05:46.809Z,28.46
2022-08-05T02:05:59.825Z,28.45
2022-08-05T02:06:24.049Z,28.45
2022-08-05T02:06:42.524Z,28.45
2022-08-05T02:06:49.790Z,28.43
2022-08-05T02:06:59.794Z,28.45
2022-08-05T02:07:09.792Z,28.45
2022-08-05T02:07:22.194Z,28.45
2022-08-05T02:07:30.410Z,28.43
2022-08-05T02:07:39.789Z,28.43
2022-08-05T02:08:00.352Z,28.45
2022-08-05T02:08:06.241Z,28.45
2022-08-05T02:08:11.204Z,28.43
2022-08-05T02:08:31.214Z,28.45
2022-08-05T02:08:40.849Z,28.45
2022-08-05T02:08:59.521Z,28.46
2022-08-05T02:09:04.180Z,28.43
2022-08-05T02:09:14.708Z,28.45
2022-08-05T02:09:24.211Z,28.48
2022-08-05T02:09:34.184Z,28.45
2022-08-05T02:09:44.183Z,28.45
2022-08-05T02:09:54.180Z,28.42
2022-08-05T02:10:04.178Z,28.43
2022-08-05T02:10:17.252Z,28.45
2022-08-05T02:10:28.505Z,28.43
2022-08-05T02:10:34.176Z,28.43
2022-08-05T02:10:44.172Z,28.43
2022-08-05T02:10:54.174Z,28.43
2022-08-05T02:11:04.171Z,28.45
2022-08-05T02:11:14.174Z,28.42
2022-08-05T02:11:33.614Z,28.45
2022-08-05T02:11:42.133Z,28.43
2022-08-05T02:11:52.337Z,28.43
2022-08-05T02:11:58.108Z,28.45
2022-08-05T02:12:10.239Z,28.42
2022-08-05T02:12:18.104Z,28.43
2022-08-05T02:12:28.099Z,28.43
2022-08-05T02:12:38.106Z,28.42
2022-08-05T02:12:51.067Z,28.43
2022-08-05T02:12:58.464Z,28.45
2022-08-05T02:13:16.605Z,28.43
2022-08-05T02:13:21.910Z,28.42
2022-08-05T02:13:28.093Z,28.45
2022-08-05T02:13:53.394Z,28.43
2022-08-05T02:13:58.372Z,28.43
2022-08-05T02:14:03.031Z,28.46
2022-08-05T02:14:13.140Z,28.48
2022-08-05T02:14:23.035Z,28.43
2022-08-05T02:14:33.027Z,28.43
2022-08-05T02:14:43.256Z,28.42
2022-08-05T02:14:53.163Z,28.43
2022-08-05T02:15:03.305Z,28.43
2022-08-05T02:15:13.025Z,28.45
2022-08-05T02:15:23.025Z,28.42
2022-08-05T02:15:33.577Z,28.43
2022-08-05T02:15:43.027Z,28.43
2022-08-05T02:15:53.016Z,28.40
2022-08-05T02:16:03.024Z,28.42
2022-08-05T02:16:16.331Z,28.43
2022-08-05T02:16:23.019Z,28.42
2022-08-05T02:16:33.012Z,28.45
2022-08-05T02:16:44.109Z,28.39
2022-08-05T02:16:53.382Z,28.42
2022-08-05T02:17:03.012Z,28.43
2022-08-05T02:17:16.755Z,28.42
2022-08-05T02:18:28.274Z,28.43
2022-08-05T02:18:38.027Z,28.43
2022-08-05T02:18:46.740Z,28.42
2022-08-05T02:18:56.735Z,28.42
2022-08-05T02:19:07.053Z,28.42
2022-08-05T02:19:16.729Z,28.45
2022-08-05T02:19:27.211Z,28.43
2022-08-05T02:19:41.368Z,28.43
2022-08-05T02:19:51.939Z,28.43
2022-08-05T02:19:56.726Z,28.42
2022-08-05T02:20:06.730Z,28.42
2022-08-05T02:20:16.727Z,28.42
2022-08-05T02:20:26.726Z,28.42
2022-08-05T02:20:39.160Z,28.43
2022-08-05T02:20:46.991Z,28.39
2022-08-05T02:20:58.797Z,28.45
2022-08-05T02:21:14.821Z,28.43
2022-08-05T02:21:19.917Z,28.40
2022-08-05T02:21:26.724Z,28.42
2022-08-05T02:21:40.283Z,28.42
2022-08-05T02:21:49.249Z,28.45
2022-08-05T02:21:56.732Z,28.40
2022-08-05T02:22:06.717Z,28.42
2022-08-05T02:22:25.422Z,28.42
2022-08-05T02:22:30.649Z,28.40
2022-08-05T02:22:36.711Z,28.40
2022-08-05T02:22:46.712Z,28.42
2022-08-05T02:22:56.716Z,28.42
2022-08-05T02:23:06.712Z,28.43
2022-08-05T02:23:16.706Z,28.43
2022-08-05T02:23:26.710Z,28.43
2022-08-05T02:23:36.702Z,28.42
2022-08-05T02:23:46.706Z,28.40
2022-08-05T02:23:56.701Z,28.43
2022-08-05T02:24:06.709Z,28.42
2022-08-05T02:24:17.849Z,28.43
2022-08-05T02:24:26.705Z,28.42
2022-08-05T02:24:36.698Z,28.42
2022-08-05T02:24:46.700Z,28.42
2022-08-05T02:24:56.729Z,28.40
2022-08-05T02:25:06.695Z,28.42
2022-08-05T02:25:16.693Z,28.40
2022-08-05T02:25:26.694Z,28.42
2022-08-05T02:25:49.792Z,28.42
2022-08-05T02:25:54.994Z,28.43
2022-08-05T02:26:00.760Z,28.42
2022-08-05T02:26:11.753Z,28.43
2022-08-05T02:26:20.784Z,28.42
2022-08-05T02:26:30.759Z,28.42
2022-08-05T02:26:41.045Z,28.40
2022-08-05T02:26:58.637Z,28.42
2022-08-05T02:27:09.843Z,28.42
2022-08-05T02:27:14.773Z,28.43
2022-08-05T02:27:30.206Z,28.42
2022-08-05T02:28:08.946Z,28.46
2022-08-05T02:28:13.755Z,28.39
2022-08-05T02:28:29.138Z,28.40
2022-08-05T02:28:38.104Z,28.43
2022-08-05T02:28:45.712Z,28.40
2022-08-05T02:28:53.766Z,28.42
2022-08-05T02:29:04.028Z,28.42
2022-08-05T02:29:21.568Z,28.43
2022-08-05T02:29:58.625Z,28.40
2022-08-05T02:30:04.610Z,28.40
2022-08-05T02:30:09.279Z,28.39
2022-08-05T02:30:19.272Z,28.40
2022-08-05T02:30:29.908Z,28.42
2022-08-05T02:30:51.532Z,28.42
2022-08-05T02:30:56.587Z,28.43
2022-08-05T02:31:01.402Z,28.42
2022-08-05T02:31:14.547Z,28.40
2022-08-05T02:31:21.452Z,28.39
2022-08-05T02:31:34.808Z,28.39
2022-08-05T02:31:41.395Z,28.39
2022-08-05T02:31:51.398Z,28.40
2022-08-05T02:32:04.837Z,28.39
2022-08-05T02:32:11.398Z,28.40
2022-08-05T02:32:24.108Z,28.43
2022-08-05T02:32:35.507Z,28.39
2022-08-05T02:32:41.388Z,28.40
2022-08-05T02:32:51.390Z,28.39
2022-08-05T02:33:01.384Z,28.39
2022-08-05T02:33:11.389Z,28.40
2022-08-05T02:33:24.383Z,28.40
2022-08-05T02:33:40.251Z,28.38
2022-08-05T02:33:44.923Z,28.38
2022-08-05T02:33:57.169Z,28.39
2022-08-05T02:34:04.934Z,28.39
2022-08-05T02:34:14.923Z,28.39
2022-08-05T02:34:24.981Z,28.39